sensor_id;sensor_type;location;lat;lon;timestamp;P1;durP1;ratioP1;P2;durP2;ratioP2
10651;SDS011;5374;42.742;23.266;2023-05-10T00:01:43;6.00;;;5.40;;
10651;SDS011;5374;42.742;23.266;2023-05-10T00:04:30;6.33;;;5.63;;
10651;SDS011;5374;42.742;23.266;2023-05-10T00:07:18;7.10;;;6.40;;
10651;SDS011;5374;42.742;23.266;2023-05-10T00:10:05;8.43;;;7.37;;
10651;SDS011;5374;42.742;23.266;2023-05-10T00:12:54;8.40;;;7.67;;
10651;SDS011;5374;42.742;23.266;2023-05-10T00:15:41;9.33;;;8.40;;
10651;SDS011;5374;42.742;23.266;2023-05-10T00:18:28;10.37;;;9.27;;
10651;SDS011;5374;42.742;23.266;2023-05-10T00:21:15;10.53;;;9.43;;
10651;SDS011;5374;42.742;23.266;2023-05-10T00:24:03;10.07;;;9.17;;
10651;SDS011;5374;42.742;23.266;2023-05-10T00:26:51;11.43;;;10.43;;
10651;SDS011;5374;42.742;23.266;2023-05-10T00:29:39;12.43;;;9.67;;
10651;SDS011;5374;42.742;23.266;2023-05-10T00:32:26;13.03;;;11.50;;
10651;SDS011;5374;42.742;23.266;2023-05-10T00:35:13;12.90;;;11.43;;
10651;SDS011;5374;42.742;23.266;2023-05-10T00:38:00;11.50;;;10.47;;
10651;SDS011;5374;42.742;23.266;2023-05-10T00:40:48;11.50;;;9.83;;
10651;SDS011;5374;42.742;23.266;2023-05-10T00:43:35;10.93;;;9.73;;
10651;SDS011;5374;42.742;23.266;2023-05-10T00:46:23;10.20;;;9.30;;
10651;SDS011;5374;42.742;23.266;2023-05-10T00:49:12;10.30;;;8.37;;
10651;SDS011;5374;42.742;23.266;2023-05-10T00:51:59;8.77;;;8.07;;
10651;SDS011;5374;42.742;23.266;2023-05-10T00:54:48;9.53;;;8.63;;
10651;SDS011;5374;42.742;23.266;2023-05-10T00:57:36;9.17;;;8.27;;
10651;SDS011;5374;42.742;23.266;2023-05-10T01:00:24;10.03;;;8.60;;
10651;SDS011;5374;42.742;23.266;2023-05-10T01:03:14;10.20;;;9.30;;
10651;SDS011;5374;42.742;23.266;2023-05-10T01:06:01;9.83;;;8.93;;
10651;SDS011;5374;42.742;23.266;2023-05-10T01:17:34;10.03;;;9.03;;
10651;SDS011;5374;42.742;23.266;2023-05-10T01:35:58;10.00;;;8.93;;
10651;SDS011;5374;42.742;23.266;2023-05-10T01:38:50;8.97;;;8.17;;
10651;SDS011;5374;42.742;23.266;2023-05-10T01:41:40;9.20;;;8.40;;
10651;SDS011;5374;42.742;23.266;2023-05-10T01:44:35;9.20;;;8.30;;
10651;SDS011;5374;42.742;23.266;2023-05-10T01:47:29;9.47;;;8.50;;
10651;SDS011;5374;42.742;23.266;2023-05-10T01:50:22;9.20;;;8.30;;
10651;SDS011;5374;42.742;23.266;2023-05-10T01:53:17;9.10;;;8.30;;
10651;SDS011;5374;42.742;23.266;2023-05-10T01:56:06;8.33;;;7.63;;
10651;SDS011;5374;42.742;23.266;2023-05-10T01:58:55;8.60;;;7.80;;
10651;SDS011;5374;42.742;23.266;2023-05-10T02:01:43;8.07;;;7.27;;
10651;SDS011;5374;42.742;23.266;2023-05-10T02:04:32;7.57;;;6.93;;
10651;SDS011;5374;42.742;23.266;2023-05-10T02:07:23;7.67;;;6.83;;
10651;SDS011;5374;42.742;23.266;2023-05-10T02:10:12;7.30;;;6.70;;
10651;SDS011;5374;42.742;23.266;2023-05-10T02:13:00;7.80;;;6.63;;
10651;SDS011;5374;42.742;23.266;2023-05-10T02:15:49;6.70;;;6.03;;
10651;SDS011;5374;42.742;23.266;2023-05-10T02:18:45;6.73;;;6.10;;
10651;SDS011;5374;42.742;23.266;2023-05-10T02:21:33;6.70;;;6.10;;
10651;SDS011;5374;42.742;23.266;2023-05-10T02:24:22;6.77;;;6.17;;
10651;SDS011;5374;42.742;23.266;2023-05-10T02:27:13;6.73;;;6.13;;
10651;SDS011;5374;42.742;23.266;2023-05-10T02:30:02;7.00;;;6.40;;
10651;SDS011;5374;42.742;23.266;2023-05-10T02:45:53;7.60;;;6.87;;
10651;SDS011;5374;42.742;23.266;2023-05-10T02:48:45;6.97;;;6.30;;
10651;SDS011;5374;42.742;23.266;2023-05-10T02:51:32;10.20;;;6.80;;
10651;SDS011;5374;42.742;23.266;2023-05-10T03:12:37;6.27;;;5.47;;
10651;SDS011;5374;42.742;23.266;2023-05-10T06:15:13;11.20;;;8.23;;
10651;SDS011;5374;42.742;23.266;2023-05-10T06:28:32;8.57;;;7.73;;
10651;SDS011;5374;42.742;23.266;2023-05-10T06:55:26;8.10;;;7.30;;
10651;SDS011;5374;42.742;23.266;2023-05-10T06:58:13;10.73;;;7.40;;
10651;SDS011;5374;42.742;23.266;2023-05-10T07:01:03;8.57;;;7.07;;
10651;SDS011;5374;42.742;23.266;2023-05-10T07:03:51;7.93;;;6.77;;
10651;SDS011;5374;42.742;23.266;2023-05-10T07:06:38;8.57;;;6.70;;
10651;SDS011;5374;42.742;23.266;2023-05-10T07:09:25;7.47;;;6.73;;
10651;SDS011;5374;42.742;23.266;2023-05-10T07:12:14;7.03;;;6.30;;
10651;SDS011;5374;42.742;23.266;2023-05-10T07:15:01;8.27;;;6.43;;
10651;SDS011;5374;42.742;23.266;2023-05-10T07:17:48;7.43;;;6.60;;
10651;SDS011;5374;42.742;23.266;2023-05-10T07:20:37;11.17;;;6.77;;
10651;SDS011;5374;42.742;23.266;2023-05-10T07:23:24;8.47;;;7.23;;
10651;SDS011;5374;42.742;23.266;2023-05-10T07:26:11;7.17;;;6.47;;
10651;SDS011;5374;42.742;23.266;2023-05-10T07:29:01;7.30;;;6.50;;
10651;SDS011;5374;42.742;23.266;2023-05-10T07:31:48;9.77;;;7.07;;
10651;SDS011;5374;42.742;23.266;2023-05-10T07:34:36;9.17;;;7.10;;
10651;SDS011;5374;42.742;23.266;2023-05-10T07:37:23;7.60;;;6.80;;
10651;SDS011;5374;42.742;23.266;2023-05-10T07:40:10;8.17;;;6.70;;
10651;SDS011;5374;42.742;23.266;2023-05-10T07:42:57;7.07;;;5.60;;
10651;SDS011;5374;42.742;23.266;2023-05-10T07:45:46;7.43;;;5.80;;
10651;SDS011;5374;42.742;23.266;2023-05-10T07:48:34;8.80;;;6.53;;
10651;SDS011;5374;42.742;23.266;2023-05-10T07:51:21;11.03;;;6.30;;
10651;SDS011;5374;42.742;23.266;2023-05-10T07:54:08;8.10;;;6.83;;
10651;SDS011;5374;42.742;23.266;2023-05-10T07:56:55;7.97;;;7.17;;
10651;SDS011;5374;42.742;23.266;2023-05-10T07:59:42;7.93;;;7.13;;
10651;SDS011;5374;42.742;23.266;2023-05-10T08:02:31;10.57;;;7.83;;
10651;SDS011;5374;42.742;23.266;2023-05-10T08:05:19;8.17;;;7.13;;
10651;SDS011;5374;42.742;23.266;2023-05-10T08:08:06;11.47;;;6.90;;
10651;SDS011;5374;42.742;23.266;2023-05-10T08:10:53;7.67;;;6.70;;
10651;SDS011;5374;42.742;23.266;2023-05-10T08:13:40;8.37;;;7.57;;
10651;SDS011;5374;42.742;23.266;2023-05-10T08:16:28;8.40;;;7.50;;
10651;SDS011;5374;42.742;23.266;2023-05-10T08:19:16;12.93;;;8.43;;
10651;SDS011;5374;42.742;23.266;2023-05-10T08:22:04;9.47;;;7.53;;
10651;SDS011;5374;42.742;23.266;2023-05-10T08:24:52;9.97;;;7.53;;
10651;SDS011;5374;42.742;23.266;2023-05-10T08:27:39;8.60;;;7.70;;
10651;SDS011;5374;42.742;23.266;2023-05-10T08:30:26;10.30;;;8.37;;
10651;SDS011;5374;42.742;23.266;2023-05-10T08:33:13;9.90;;;8.90;;
10651;SDS011;5374;42.742;23.266;2023-05-10T08:36:02;9.23;;;8.20;;
10651;SDS011;5374;42.742;23.266;2023-05-10T08:38:50;9.20;;;8.13;;
10651;SDS011;5374;42.742;23.266;2023-05-10T08:41:38;9.27;;;8.37;;
10651;SDS011;5374;42.742;23.266;2023-05-10T08:44:26;9.53;;;6.87;;
10651;SDS011;5374;42.742;23.266;2023-05-10T08:47:13;9.70;;;7.60;;
10651;SDS011;5374;42.742;23.266;2023-05-10T08:50:03;8.63;;;6.57;;
10651;SDS011;5374;42.742;23.266;2023-05-10T08:52:52;9.73;;;8.03;;
10651;SDS011;5374;42.742;23.266;2023-05-10T08:55:42;7.00;;;6.30;;
10651;SDS011;5374;42.742;23.266;2023-05-10T08:58:29;8.57;;;7.00;;
10651;SDS011;5374;42.742;23.266;2023-05-10T09:01:16;9.73;;;6.77;;
10651;SDS011;5374;42.742;23.266;2023-05-10T09:04:05;7.73;;;6.80;;
10651;SDS011;5374;42.742;23.266;2023-05-10T09:06:53;7.57;;;6.77;;
10651;SDS011;5374;42.742;23.266;2023-05-10T09:09:42;6.97;;;6.37;;
10651;SDS011;5374;42.742;23.266;2023-05-10T09:12:30;8.03;;;7.20;;
10651;SDS011;5374;42.742;23.266;2023-05-10T09:15:17;8.17;;;7.37;;
10651;SDS011;5374;42.742;23.266;2023-05-10T09:18:05;9.13;;;7.63;;
10651;SDS011;5374;42.742;23.266;2023-05-10T09:20:52;8.63;;;7.83;;
10651;SDS011;5374;42.742;23.266;2023-05-10T09:23:42;9.57;;;7.77;;
10651;SDS011;5374;42.742;23.266;2023-05-10T09:26:31;7.03;;;6.37;;
10651;SDS011;5374;42.742;23.266;2023-05-10T09:29:18;7.67;;;6.90;;
10651;SDS011;5374;42.742;23.266;2023-05-10T09:32:05;10.07;;;7.40;;
10651;SDS011;5374;42.742;23.266;2023-05-10T09:34:53;8.87;;;6.97;;
10651;SDS011;5374;42.742;23.266;2023-05-10T09:37:40;8.83;;;7.83;;
10651;SDS011;5374;42.742;23.266;2023-05-10T09:40:29;8.30;;;7.40;;
10651;SDS011;5374;42.742;23.266;2023-05-10T09:43:18;10.17;;;7.60;;
10651;SDS011;5374;42.742;23.266;2023-05-10T09:46:08;9.33;;;6.80;;
10651;SDS011;5374;42.742;23.266;2023-05-10T09:48:56;8.37;;;7.53;;
10651;SDS011;5374;42.742;23.266;2023-05-10T09:51:44;10.73;;;8.43;;
10651;SDS011;5374;42.742;23.266;2023-05-10T09:54:31;8.37;;;7.47;;
10651;SDS011;5374;42.742;23.266;2023-05-10T09:57:20;8.80;;;7.73;;
10651;SDS011;5374;42.742;23.266;2023-05-10T10:00:10;11.90;;;7.13;;
10651;SDS011;5374;42.742;23.266;2023-05-10T10:03:03;8.57;;;7.73;;
10651;SDS011;5374;42.742;23.266;2023-05-10T10:05:50;6.77;;;6.07;;
10651;SDS011;5374;42.742;23.266;2023-05-10T10:08:38;9.77;;;6.77;;
10651;SDS011;5374;42.742;23.266;2023-05-10T10:11:25;8.03;;;6.70;;
10651;SDS011;5374;42.742;23.266;2023-05-10T10:14:13;10.80;;;6.47;;
10651;SDS011;5374;42.742;23.266;2023-05-10T10:17:02;6.60;;;6.00;;
10651;SDS011;5374;42.742;23.266;2023-05-10T10:19:49;8.00;;;7.23;;
10651;SDS011;5374;42.742;23.266;2023-05-10T10:22:36;8.53;;;7.13;;
10651;SDS011;5374;42.742;23.266;2023-05-10T10:25:24;8.70;;;7.23;;
10651;SDS011;5374;42.742;23.266;2023-05-10T10:28:16;7.63;;;6.80;;
10651;SDS011;5374;42.742;23.266;2023-05-10T10:31:13;6.63;;;6.00;;
10651;SDS011;5374;42.742;23.266;2023-05-10T10:34:06;6.67;;;6.00;;
10651;SDS011;5374;42.742;23.266;2023-05-10T10:36:56;7.00;;;6.30;;
10651;SDS011;5374;42.742;23.266;2023-05-10T10:39:44;9.87;;;7.23;;
10651;SDS011;5374;42.742;23.266;2023-05-10T10:45:40;6.10;;;5.53;;
10651;SDS011;5374;42.742;23.266;2023-05-10T10:48:27;10.93;;;7.13;;
10651;SDS011;5374;42.742;23.266;2023-05-10T10:51:15;7.83;;;6.77;;
10651;SDS011;5374;42.742;23.266;2023-05-10T10:54:08;6.63;;;5.80;;
10651;SDS011;5374;42.742;23.266;2023-05-10T10:57:09;6.70;;;6.00;;
10651;SDS011;5374;42.742;23.266;2023-05-10T11:03:10;7.37;;;6.10;;
10651;SDS011;5374;42.742;23.266;2023-05-10T11:05:59;9.87;;;7.07;;
10651;SDS011;5374;42.742;23.266;2023-05-10T11:08:49;9.17;;;6.93;;
10651;SDS011;5374;42.742;23.266;2023-05-10T11:11:48;8.43;;;6.80;;
10651;SDS011;5374;42.742;23.266;2023-05-10T11:14:36;7.20;;;6.50;;
10651;SDS011;5374;42.742;23.266;2023-05-10T11:17:23;8.30;;;6.57;;
10651;SDS011;5374;42.742;23.266;2023-05-10T11:20:13;6.97;;;6.27;;
10651;SDS011;5374;42.742;23.266;2023-05-10T11:23:10;6.93;;;5.80;;
10651;SDS011;5374;42.742;23.266;2023-05-10T11:26:02;6.50;;;5.77;;
10651;SDS011;5374;42.742;23.266;2023-05-10T11:28:52;7.00;;;5.77;;
10651;SDS011;5374;42.742;23.266;2023-05-10T11:31:42;6.97;;;6.20;;
10651;SDS011;5374;42.742;23.266;2023-05-10T11:34:30;6.33;;;5.73;;
10651;SDS011;5374;42.742;23.266;2023-05-10T11:37:18;8.27;;;5.87;;
10651;SDS011;5374;42.742;23.266;2023-05-10T11:40:06;6.77;;;6.07;;
10651;SDS011;5374;42.742;23.266;2023-05-10T11:42:56;12.70;;;10.00;;
10651;SDS011;5374;42.742;23.266;2023-05-10T11:45:44;10.27;;;8.60;;
10651;SDS011;5374;42.742;23.266;2023-05-10T11:48:31;8.73;;;7.63;;
10651;SDS011;5374;42.742;23.266;2023-05-10T11:51:19;10.63;;;6.87;;
10651;SDS011;5374;42.742;23.266;2023-05-10T11:54:08;11.17;;;7.50;;
10651;SDS011;5374;42.742;23.266;2023-05-10T11:56:56;8.03;;;7.17;;
10651;SDS011;5374;42.742;23.266;2023-05-10T11:59:44;8.47;;;6.70;;
10651;SDS011;5374;42.742;23.266;2023-05-10T12:02:32;11.47;;;7.50;;
10651;SDS011;5374;42.742;23.266;2023-05-10T12:05:19;9.60;;;7.20;;
10651;SDS011;5374;42.742;23.266;2023-05-10T12:08:13;18.67;;;15.83;;
10651;SDS011;5374;42.742;23.266;2023-05-10T12:11:04;23.53;;;15.73;;
10651;SDS011;5374;42.742;23.266;2023-05-10T12:13:53;31.00;;;27.57;;
10651;SDS011;5374;42.742;23.266;2023-05-10T12:16:42;47.00;;;37.97;;
10651;SDS011;5374;42.742;23.266;2023-05-10T12:19:36;29.70;;;26.40;;
10651;SDS011;5374;42.742;23.266;2023-05-10T12:22:23;20.93;;;17.10;;
10651;SDS011;5374;42.742;23.266;2023-05-10T12:25:11;36.20;;;30.90;;
10651;SDS011;5374;42.742;23.266;2023-05-10T12:27:58;14.33;;;8.07;;
10651;SDS011;5374;42.742;23.266;2023-05-10T12:30:47;19.83;;;17.37;;
10651;SDS011;5374;42.742;23.266;2023-05-10T12:33:39;10.70;;;8.50;;
10651;SDS011;5374;42.742;23.266;2023-05-10T12:36:28;10.03;;;6.80;;
10651;SDS011;5374;42.742;23.266;2023-05-10T12:39:15;7.17;;;6.47;;
10651;SDS011;5374;42.742;23.266;2023-05-10T12:42:02;7.17;;;6.47;;
10651;SDS011;5374;42.742;23.266;2023-05-10T12:44:49;8.30;;;7.27;;
10651;SDS011;5374;42.742;23.266;2023-05-10T12:47:41;11.17;;;6.93;;
10651;SDS011;5374;42.742;23.266;2023-05-10T12:50:30;9.23;;;6.40;;
10651;SDS011;5374;42.742;23.266;2023-05-10T12:53:17;9.30;;;6.80;;
10651;SDS011;5374;42.742;23.266;2023-05-10T12:56:05;7.60;;;6.90;;
10651;SDS011;5374;42.742;23.266;2023-05-10T12:58:53;7.70;;;6.90;;
10651;SDS011;5374;42.742;23.266;2023-05-10T13:01:40;9.23;;;6.23;;
10651;SDS011;5374;42.742;23.266;2023-05-10T13:04:27;7.53;;;6.83;;
10651;SDS011;5374;42.742;23.266;2023-05-10T13:07:15;7.73;;;7.03;;
10651;SDS011;5374;42.742;23.266;2023-05-10T13:10:03;7.27;;;6.57;;
10651;SDS011;5374;42.742;23.266;2023-05-10T13:12:51;11.73;;;7.13;;
10651;SDS011;5374;42.742;23.266;2023-05-10T13:15:38;10.47;;;6.77;;
10651;SDS011;5374;42.742;23.266;2023-05-10T13:18:25;8.13;;;6.80;;
10651;SDS011;5374;42.742;23.266;2023-05-10T13:21:12;8.37;;;6.33;;
10651;SDS011;5374;42.742;23.266;2023-05-10T13:24:01;7.53;;;5.80;;
10651;SDS011;5374;42.742;23.266;2023-05-10T13:26:48;6.80;;;6.13;;
10651;SDS011;5374;42.742;23.266;2023-05-10T13:29:35;8.13;;;7.00;;
10651;SDS011;5374;42.742;23.266;2023-05-10T13:32:23;7.73;;;6.20;;
10651;SDS011;5374;42.742;23.266;2023-05-10T13:35:10;8.40;;;6.80;;
10651;SDS011;5374;42.742;23.266;2023-05-10T13:37:58;8.63;;;6.47;;
10651;SDS011;5374;42.742;23.266;2023-05-10T13:40:46;9.63;;;6.67;;
10651;SDS011;5374;42.742;23.266;2023-05-10T13:43:37;6.83;;;6.23;;
10651;SDS011;5374;42.742;23.266;2023-05-10T13:46:25;8.57;;;6.57;;
10651;SDS011;5374;42.742;23.266;2023-05-10T13:49:13;8.37;;;6.57;;
10651;SDS011;5374;42.742;23.266;2023-05-10T13:52:01;8.80;;;6.40;;
10651;SDS011;5374;42.742;23.266;2023-05-10T13:54:52;11.90;;;6.57;;
10651;SDS011;5374;42.742;23.266;2023-05-10T13:57:41;7.73;;;6.93;;
10651;SDS011;5374;42.742;23.266;2023-05-10T14:00:28;6.73;;;6.03;;
10651;SDS011;5374;42.742;23.266;2023-05-10T14:03:16;7.20;;;6.10;;
10651;SDS011;5374;42.742;23.266;2023-05-10T14:06:03;10.40;;;6.47;;
10651;SDS011;5374;42.742;23.266;2023-05-10T14:08:50;9.03;;;6.93;;
10651;SDS011;5374;42.742;23.266;2023-05-10T14:11:46;7.70;;;6.73;;
10651;SDS011;5374;42.742;23.266;2023-05-10T14:14:35;7.07;;;6.33;;
10651;SDS011;5374;42.742;23.266;2023-05-10T14:17:22;13.83;;;6.83;;
10651;SDS011;5374;42.742;23.266;2023-05-10T14:20:10;8.00;;;6.13;;
10651;SDS011;5374;42.742;23.266;2023-05-10T14:23:01;7.83;;;6.70;;
10651;SDS011;5374;42.742;23.266;2023-05-10T14:25:49;11.83;;;7.23;;
10651;SDS011;5374;42.742;23.266;2023-05-10T14:28:36;11.20;;;7.00;;
10651;SDS011;5374;42.742;23.266;2023-05-10T14:31:27;7.77;;;6.40;;
10651;SDS011;5374;42.742;23.266;2023-05-10T14:34:17;8.27;;;6.50;;
10651;SDS011;5374;42.742;23.266;2023-05-10T14:37:09;9.57;;;6.60;;
10651;SDS011;5374;42.742;23.266;2023-05-10T14:40:00;7.97;;;6.90;;
10651;SDS011;5374;42.742;23.266;2023-05-10T14:43:06;8.43;;;6.90;;
10651;SDS011;5374;42.742;23.266;2023-05-10T14:45:53;10.63;;;6.97;;
10651;SDS011;5374;42.742;23.266;2023-05-10T14:48:43;10.97;;;7.00;;
10651;SDS011;5374;42.742;23.266;2023-05-10T14:51:31;9.10;;;7.27;;
10651;SDS011;5374;42.742;23.266;2023-05-10T14:58:14;10.43;;;6.97;;
10651;SDS011;5374;42.742;23.266;2023-05-10T15:02:00;9.73;;;8.07;;
10651;SDS011;5374;42.742;23.266;2023-05-10T15:05:07;7.97;;;6.33;;
10651;SDS011;5374;42.742;23.266;2023-05-10T15:07:54;9.27;;;7.30;;
10651;SDS011;5374;42.742;23.266;2023-05-10T15:10:42;10.47;;;7.07;;
10651;SDS011;5374;42.742;23.266;2023-05-10T15:13:30;11.63;;;7.13;;
10651;SDS011;5374;42.742;23.266;2023-05-10T15:16:17;9.20;;;6.87;;
10651;SDS011;5374;42.742;23.266;2023-05-10T15:19:05;7.70;;;7.00;;
10651;SDS011;5374;42.742;23.266;2023-05-10T15:22:08;9.13;;;6.53;;
10651;SDS011;5374;42.742;23.266;2023-05-10T15:25:08;10.03;;;6.70;;
10651;SDS011;5374;42.742;23.266;2023-05-10T15:31:41;9.63;;;7.23;;
10651;SDS011;5374;42.742;23.266;2023-05-10T15:35:01;7.43;;;6.53;;
10651;SDS011;5374;42.742;23.266;2023-05-10T15:37:55;7.93;;;6.63;;
10651;SDS011;5374;42.742;23.266;2023-05-10T15:40:42;9.80;;;6.80;;
10651;SDS011;5374;42.742;23.266;2023-05-10T15:43:31;8.33;;;6.30;;
10651;SDS011;5374;42.742;23.266;2023-05-10T15:46:18;8.73;;;6.93;;
10651;SDS011;5374;42.742;23.266;2023-05-10T15:49:05;7.30;;;6.57;;
10651;SDS011;5374;42.742;23.266;2023-05-10T15:51:53;9.17;;;7.37;;
10651;SDS011;5374;42.742;23.266;2023-05-10T15:54:41;10.77;;;7.23;;
10651;SDS011;5374;42.742;23.266;2023-05-10T15:57:29;7.83;;;6.53;;
10651;SDS011;5374;42.742;23.266;2023-05-10T16:00:16;10.63;;;7.03;;
10651;SDS011;5374;42.742;23.266;2023-05-10T16:03:04;7.60;;;6.80;;
10651;SDS011;5374;42.742;23.266;2023-05-10T16:05:51;9.57;;;6.63;;
10651;SDS011;5374;42.742;23.266;2023-05-10T16:08:39;8.73;;;6.80;;
10651;SDS011;5374;42.742;23.266;2023-05-10T16:11:27;8.17;;;6.43;;
10651;SDS011;5374;42.742;23.266;2023-05-10T16:14:14;8.77;;;7.00;;
10651;SDS011;5374;42.742;23.266;2023-05-10T16:17:02;10.30;;;6.83;;
10651;SDS011;5374;42.742;23.266;2023-05-10T16:19:49;7.87;;;6.87;;
10651;SDS011;5374;42.742;23.266;2023-05-10T16:22:36;7.87;;;6.47;;
10651;SDS011;5374;42.742;23.266;2023-05-10T16:25:24;8.13;;;6.73;;
10651;SDS011;5374;42.742;23.266;2023-05-10T16:28:12;10.00;;;7.30;;
10651;SDS011;5374;42.742;23.266;2023-05-10T16:30:59;12.93;;;7.50;;
10651;SDS011;5374;42.742;23.266;2023-05-10T16:33:46;9.60;;;7.10;;
10651;SDS011;5374;42.742;23.266;2023-05-10T16:40:18;10.83;;;7.50;;
10651;SDS011;5374;42.742;23.266;2023-05-10T16:43:05;8.70;;;7.23;;
10651;SDS011;5374;42.742;23.266;2023-05-10T16:45:54;10.10;;;7.33;;
10651;SDS011;5374;42.742;23.266;2023-05-10T16:48:41;8.53;;;7.53;;
10651;SDS011;5374;42.742;23.266;2023-05-10T16:51:28;8.23;;;7.23;;
10651;SDS011;5374;42.742;23.266;2023-05-10T16:54:16;8.53;;;7.30;;
10651;SDS011;5374;42.742;23.266;2023-05-10T16:57:03;14.97;;;7.80;;
10651;SDS011;5374;42.742;23.266;2023-05-10T16:59:50;10.70;;;7.80;;
10651;SDS011;5374;42.742;23.266;2023-05-10T17:02:40;15.00;;;7.53;;
10651;SDS011;5374;42.742;23.266;2023-05-10T17:05:30;9.90;;;8.07;;
10651;SDS011;5374;42.742;23.266;2023-05-10T17:08:17;11.63;;;9.13;;
10651;SDS011;5374;42.742;23.266;2023-05-10T17:11:05;10.90;;;9.10;;
10651;SDS011;5374;42.742;23.266;2023-05-10T17:13:54;10.77;;;7.97;;
10651;SDS011;5374;42.742;23.266;2023-05-10T17:16:41;9.03;;;7.77;;
10651;SDS011;5374;42.742;23.266;2023-05-10T17:19:30;8.27;;;7.47;;
10651;SDS011;5374;42.742;23.266;2023-05-10T17:22:17;8.63;;;7.47;;
10651;SDS011;5374;42.742;23.266;2023-05-10T17:25:05;9.27;;;8.23;;
10651;SDS011;5374;42.742;23.266;2023-05-10T17:27:53;8.30;;;7.50;;
10651;SDS011;5374;42.742;23.266;2023-05-10T17:30:40;11.93;;;7.93;;
10651;SDS011;5374;42.742;23.266;2023-05-10T17:33:27;13.27;;;9.90;;
10651;SDS011;5374;42.742;23.266;2023-05-10T17:36:16;9.40;;;8.40;;
10651;SDS011;5374;42.742;23.266;2023-05-10T17:39:03;8.43;;;7.63;;
10651;SDS011;5374;42.742;23.266;2023-05-10T17:41:50;9.70;;;7.77;;
10651;SDS011;5374;42.742;23.266;2023-05-10T17:44:37;10.37;;;7.87;;
10651;SDS011;5374;42.742;23.266;2023-05-10T17:47:25;9.23;;;7.50;;
10651;SDS011;5374;42.742;23.266;2023-05-10T17:50:12;8.73;;;7.87;;
10651;SDS011;5374;42.742;23.266;2023-05-10T17:53:03;8.20;;;7.37;;
10651;SDS011;5374;42.742;23.266;2023-05-10T17:55:50;8.27;;;7.47;;
10651;SDS011;5374;42.742;23.266;2023-05-10T17:58:38;9.13;;;7.50;;
10651;SDS011;5374;42.742;23.266;2023-05-10T18:01:26;8.13;;;7.33;;
10651;SDS011;5374;42.742;23.266;2023-05-10T18:04:13;10.43;;;7.70;;
10651;SDS011;5374;42.742;23.266;2023-05-10T18:07:02;8.20;;;7.40;;
10651;SDS011;5374;42.742;23.266;2023-05-10T18:09:51;8.90;;;8.00;;
10651;SDS011;5374;42.742;23.266;2023-05-10T18:12:38;11.70;;;7.77;;
10651;SDS011;5374;42.742;23.266;2023-05-10T18:15:42;8.10;;;6.90;;
10651;SDS011;5374;42.742;23.266;2023-05-10T18:18:30;10.60;;;7.83;;
10651;SDS011;5374;42.742;23.266;2023-05-10T18:21:17;9.70;;;8.03;;
10651;SDS011;5374;42.742;23.266;2023-05-10T18:24:04;9.97;;;7.67;;
10651;SDS011;5374;42.742;23.266;2023-05-10T18:26:58;8.10;;;7.30;;
10651;SDS011;5374;42.742;23.266;2023-05-10T18:29:55;8.43;;;7.40;;
10651;SDS011;5374;42.742;23.266;2023-05-10T18:32:42;8.73;;;7.83;;
10651;SDS011;5374;42.742;23.266;2023-05-10T18:35:32;8.80;;;7.00;;
10651;SDS011;5374;42.742;23.266;2023-05-10T18:43:36;8.17;;;6.47;;
10651;SDS011;5374;42.742;23.266;2023-05-10T18:46:23;10.37;;;7.53;;
10651;SDS011;5374;42.742;23.266;2023-05-10T18:49:13;7.77;;;7.07;;
10651;SDS011;5374;42.742;23.266;2023-05-10T18:52:08;7.77;;;7.07;;
10651;SDS011;5374;42.742;23.266;2023-05-10T18:54:56;8.30;;;7.60;;
10651;SDS011;5374;42.742;23.266;2023-05-10T18:57:43;8.77;;;7.40;;
10651;SDS011;5374;42.742;23.266;2023-05-10T19:00:32;9.37;;;7.47;;
10651;SDS011;5374;42.742;23.266;2023-05-10T19:03:19;8.57;;;7.63;;
10651;SDS011;5374;42.742;23.266;2023-05-10T19:06:09;9.57;;;7.00;;
10651;SDS011;5374;42.742;23.266;2023-05-10T19:08:57;8.97;;;7.17;;
10651;SDS011;5374;42.742;23.266;2023-05-10T19:11:44;8.73;;;7.83;;
10651;SDS011;5374;42.742;23.266;2023-05-10T19:14:35;8.90;;;8.00;;
10651;SDS011;5374;42.742;23.266;2023-05-10T19:17:23;9.90;;;7.67;;
10651;SDS011;5374;42.742;23.266;2023-05-10T19:20:16;10.37;;;8.17;;
10651;SDS011;5374;42.742;23.266;2023-05-10T19:23:04;8.80;;;7.90;;
10651;SDS011;5374;42.742;23.266;2023-05-10T19:25:51;9.27;;;7.87;;
10651;SDS011;5374;42.742;23.266;2023-05-10T19:28:41;10.03;;;7.90;;
10651;SDS011;5374;42.742;23.266;2023-05-10T19:31:37;9.23;;;8.27;;
10651;SDS011;5374;42.742;23.266;2023-05-10T19:34:58;12.83;;;8.37;;
10651;SDS011;5374;42.742;23.266;2023-05-10T19:42:04;9.83;;;8.83;;
10651;SDS011;5374;42.742;23.266;2023-05-10T19:44:47;11.00;;;9.07;;
10651;SDS011;5374;42.742;23.266;2023-05-10T19:47:35;10.53;;;9.17;;
10651;SDS011;5374;42.742;23.266;2023-05-10T19:50:26;10.77;;;9.70;;
10651;SDS011;5374;42.742;23.266;2023-05-10T19:53:14;10.93;;;9.30;;
10651;SDS011;5374;42.742;23.266;2023-05-10T19:56:02;10.87;;;9.77;;
10651;SDS011;5374;42.742;23.266;2023-05-10T19:58:50;14.57;;;9.40;;
10651;SDS011;5374;42.742;23.266;2023-05-10T20:01:38;12.17;;;10.17;;
10651;SDS011;5374;42.742;23.266;2023-05-10T20:04:26;14.80;;;9.73;;
10651;SDS011;5374;42.742;23.266;2023-05-10T20:07:15;16.30;;;11.10;;
10651;SDS011;5374;42.742;23.266;2023-05-10T20:10:02;12.20;;;10.70;;
10651;SDS011;5374;42.742;23.266;2023-05-10T20:12:50;14.83;;;11.00;;
10651;SDS011;5374;42.742;23.266;2023-05-10T20:15:38;11.73;;;10.50;;
10651;SDS011;5374;42.742;23.266;2023-05-10T20:18:26;14.57;;;11.00;;
10651;SDS011;5374;42.742;23.266;2023-05-10T20:21:13;11.57;;;10.37;;
10651;SDS011;5374;42.742;23.266;2023-05-10T20:24:02;13.23;;;10.50;;
10651;SDS011;5374;42.742;23.266;2023-05-10T20:26:53;12.47;;;11.17;;
10651;SDS011;5374;42.742;23.266;2023-05-10T20:29:41;12.63;;;10.93;;
10651;SDS011;5374;42.742;23.266;2023-05-10T20:32:29;11.57;;;10.37;;
10651;SDS011;5374;42.742;23.266;2023-05-10T20:35:19;12.23;;;10.93;;
10651;SDS011;5374;42.742;23.266;2023-05-10T20:38:07;15.80;;;11.00;;
10651;SDS011;5374;42.742;23.266;2023-05-10T20:40:59;12.20;;;11.03;;
10651;SDS011;5374;42.742;23.266;2023-05-10T20:43:47;12.43;;;11.10;;
10651;SDS011;5374;42.742;23.266;2023-05-10T20:52:59;12.60;;;10.23;;
10651;SDS011;5374;42.742;23.266;2023-05-10T20:55:48;12.70;;;10.77;;
10651;SDS011;5374;42.742;23.266;2023-05-10T20:58:37;14.30;;;10.77;;
10651;SDS011;5374;42.742;23.266;2023-05-10T21:01:24;14.93;;;10.90;;
10651;SDS011;5374;42.742;23.266;2023-05-10T21:04:11;11.20;;;10.10;;
10651;SDS011;5374;42.742;23.266;2023-05-10T21:06:58;13.53;;;10.80;;
10651;SDS011;5374;42.742;23.266;2023-05-10T21:09:46;11.77;;;10.57;;
10651;SDS011;5374;42.742;23.266;2023-05-10T21:12:33;11.63;;;10.50;;
10651;SDS011;5374;42.742;23.266;2023-05-10T21:15:24;12.63;;;11.33;;
10651;SDS011;5374;42.742;23.266;2023-05-10T21:18:12;13.43;;;12.03;;
10651;SDS011;5374;42.742;23.266;2023-05-10T21:20:59;12.70;;;11.40;;
10651;SDS011;5374;42.742;23.266;2023-05-10T21:23:48;13.27;;;11.33;;
10651;SDS011;5374;42.742;23.266;2023-05-10T21:26:35;12.10;;;10.80;;
10651;SDS011;5374;42.742;23.266;2023-05-10T21:29:22;11.87;;;10.67;;
10651;SDS011;5374;42.742;23.266;2023-05-10T21:32:12;12.00;;;10.67;;
10651;SDS011;5374;42.742;23.266;2023-05-10T21:35:00;11.87;;;10.77;;
10651;SDS011;5374;42.742;23.266;2023-05-10T21:37:47;11.77;;;9.87;;
10651;SDS011;5374;42.742;23.266;2023-05-10T21:40:34;11.33;;;10.13;;
10651;SDS011;5374;42.742;23.266;2023-05-10T21:43:21;11.80;;;10.60;;
10651;SDS011;5374;42.742;23.266;2023-05-10T21:46:11;12.10;;;10.50;;
10651;SDS011;5374;42.742;23.266;2023-05-10T21:49:00;12.97;;;10.73;;
10651;SDS011;5374;42.742;23.266;2023-05-10T21:51:47;12.90;;;10.93;;
10651;SDS011;5374;42.742;23.266;2023-05-10T21:54:37;12.53;;;11.20;;